Covington, Oklahoma
Current Conditions -  °F | °C
As of 7:50 AM on Monday 20 Oct 2014 (Local Time) from KWDG Reporting Station
Haze Haze  
Wind Chill: 13°   Ceiling: Unl
Heat Index: 13°   Visibility: 5mi
Dew Point: 13°   Wind: 6mph
Humidity: 100%   Direction: 150°SSE
Pressure: 30.02"   Gusts: NA
Location:  36.31°N, 97.59°W
Report Text: KWDG 201250Z 15005KT 5SM BR SCT090 13/13 A3002
Loading
Personal Weather Stations






























Interactive Weather Map
Tropical Storm Tracking
New forecast layout! Learn more

10-Day Weather Forecast

Advertisements
Track Severe Weather on mobile